Time;durP1;ratioP1;P1;durP2;ratioP2;P2;SDS_P1;SDS_P2;PMS_P1;PMS_P2;Temp;Humidity;BMP_temperature;BMP_pressure;BME280_temperature;BME280_humidity;BME280_pressure;Samples;Min_cycle;Max_cycle;Signal;HPM_P1;HPM_P2
2022/12/08 00:02:16;;;;;;;3.22;1.52;;;;;;;-4.10;86.61;100357.59;5115295;28;20087;-73
2022/12/08 00:10:10;;;;;;;7.32;2.90;;;;;;;-3.84;86.14;100352.09;5116950;28;20039;-73
2022/12/08 00:12:35;;;;;;;10.60;4.78;;;;;;;-3.90;86.24;100339.47;5104355;28;20110;-73
2022/12/08 00:15:02;;;;;;;12.65;4.75;;;;;;;-4.05;86.24;100316.00;5110816;28;20402;-72
2022/12/08 00:17:28;;;;;;;7.45;3.50;;;;;;;-3.76;86.59;100347.13;5112470;27;20039;-72
2022/12/08 00:19:53;;;;;;;6.35;3.15;;;;;;;-3.65;86.70;100346.28;5103412;28;20036;-73
2022/12/08 00:22:18;;;;;;;6.28;3.38;;;;;;;-3.53;86.55;100345.31;5084440;28;20448;-73
2022/12/08 00:24:45;;;;;;;7.22;3.95;;;;;;;-3.45;86.28;100340.28;5111561;28;20426;-73
2022/12/08 00:27:13;;;;;;;6.35;3.30;;;;;;;-3.36;86.55;100339.56;5108606;28;20043;-74
2022/12/08 00:29:39;;;;;;;7.75;3.58;;;;;;;-3.31;86.44;100344.50;5104584;28;20035;-73
2022/12/08 00:32:05;;;;;;;7.25;3.75;;;;;;;-3.22;86.37;100333.22;5114675;28;20430;-73
2022/12/08 00:34:31;;;;;;;12.27;4.43;;;;;;;-3.11;86.82;100335.84;5104176;28;20023;-72
2022/12/08 00:36:56;;;;;;;9.27;5.00;;;;;;;-3.10;86.42;100326.16;5091891;28;20091;-72
2022/12/08 00:39:22;;;;;;;8.68;4.50;;;;;;;-2.98;86.78;100327.81;5109747;28;20051;-72
2022/12/08 00:44:31;;;;;;;10.07;4.60;;;;;;;-2.80;86.62;100322.00;5088978;28;20035;-72
2022/12/08 00:46:57;;;;;;;12.73;5.60;;;;;;;-2.78;86.55;100314.78;5110072;28;20032;-72
2022/12/08 00:49:22;;;;;;;10.20;6.20;;;;;;;-2.74;87.21;100326.78;5109617;28;20096;-73
2022/12/08 00:51:49;;;;;;;12.48;5.20;;;;;;;-2.72;87.20;100314.28;5102690;28;20059;-72
2022/12/08 00:54:15;;;;;;;12.05;4.72;;;;;;;-2.69;87.22;100320.13;5113664;28;20517;-73
2022/12/08 00:56:41;;;;;;;9.23;5.20;;;;;;;-2.72;87.11;100306.38;5103819;27;20032;-73
2022/12/08 00:59:06;;;;;;;9.38;4.65;;;;;;;-2.66;86.99;100308.53;5073177;28;20039;-72
2022/12/08 01:01:33;;;;;;;11.60;5.93;;;;;;;-2.58;86.79;100313.16;5110636;28;20130;-72
2022/12/08 01:04:03;;;;;;;13.35;8.02;;;;;;;-2.58;87.23;100311.38;5099955;28;20039;-72
2022/12/08 01:06:29;;;;;;;12.93;8.57;;;;;;;-2.58;87.43;100311.38;5112977;28;20047;-73
2022/12/08 01:08:55;;;;;;;16.40;9.30;;;;;;;-2.56;87.17;100306.81;5106347;28;20037;-73
2022/12/08 01:11:20;;;;;;;11.13;6.43;;;;;;;-2.63;86.98;100292.47;5104655;28;20107;-73
2022/12/08 01:13:46;;;;;;;11.25;5.57;;;;;;;-2.54;87.34;100310.16;5112203;28;20122;-72
2022/12/08 01:16:23;;;;;;;10.68;5.57;;;;;;;-2.57;86.96;100310.41;5087206;28;20020;-73
2022/12/08 01:18:49;;;;;;;9.35;5.85;;;;;;;-2.63;87.20;100303.00;5125914;28;20073;-72
2022/12/08 01:21:15;;;;;;;11.05;5.53;;;;;;;-2.69;87.01;100304.34;5093683;28;20488;-73
2022/12/08 01:23:40;;;;;;;9.27;5.57;;;;;;;-2.76;87.58;100295.28;5100770;28;20031;-72
2022/12/08 01:26:10;;;;;;;11.48;5.90;;;;;;;-2.78;87.83;100297.22;5112900;28;20027;-72
2022/12/08 01:28:35;;;;;;;8.68;4.90;;;;;;;-2.75;87.54;100296.09;5084621;28;20031;-72
2022/12/08 01:31:01;;;;;;;11.18;5.13;;;;;;;-2.77;87.27;100292.78;5107341;28;20028;-72
2022/12/08 01:33:27;;;;;;;10.15;5.10;;;;;;;-2.74;87.54;100292.53;5109299;28;20036;-72
2022/12/08 01:35:54;;;;;;;9.48;4.70;;;;;;;-2.71;87.07;100298.38;5101271;28;20024;-72
2022/12/08 01:38:21;;;;;;;11.23;4.80;;;;;;;-2.73;87.55;100288.94;5112968;28;20387;-72
2022/12/08 01:40:48;;;;;;;7.55;3.90;;;;;;;-2.76;86.97;100290.00;5103847;28;20367;-72
2022/12/08 01:43:18;;;;;;;9.52;4.30;;;;;;;-2.77;87.45;100290.16;5087970;28;20122;-72
2022/12/08 01:45:44;;;;;;;8.68;3.72;;;;;;;-2.86;87.35;100276.75;5111320;28;20036;-72
2022/12/08 01:48:18;;;;;;;6.18;3.72;;;;;;;-2.79;87.46;100286.78;5099276;28;20057;-72
2022/12/08 01:50:49;;;;;;;6.18;3.35;;;;;;;-2.75;87.25;100277.69;5110970;28;20016;-72
2022/12/08 01:53:21;;;;;;;5.72;3.45;;;;;;;-2.72;87.37;100290.59;5107184;28;20556;-72
2022/12/08 01:55:52;;;;;;;8.73;3.30;;;;;;;-2.72;87.24;100282.69;5100558;28;20032;-73
2022/12/08 01:58:27;;;;;;;6.45;3.17;;;;;;;-2.81;87.20;100276.41;5112938;28;20106;-72
2022/12/08 02:00:53;;;;;;;7.50;3.67;;;;;;;-2.75;87.46;100283.78;5105213;28;20436;-72
2022/12/08 02:03:30;;;;;;;6.43;2.92;;;;;;;-2.76;87.50;100282.09;5106083;28;20059;-72
2022/12/08 02:05:57;;;;;;;6.50;3.35;;;;;;;-2.96;87.62;100261.84;5114050;28;20097;-72
2022/12/08 02:08:23;;;;;;;6.65;3.08;;;;;;;-3.04;88.74;100283.53;5099864;28;20102;-72
2022/12/08 02:10:51;;;;;;;6.10;3.10;;;;;;;-3.14;88.77;100280.81;5110685;28;20109;-73
2022/12/08 02:13:19;;;;;;;9.93;3.17;;;;;;;-3.11;89.35;100280.56;5114633;28;20047;-72
2022/12/08 02:16:14;;;;;;;8.15;3.15;;;;;;;-3.13;89.48;100279.03;5109185;27;20038;-73
2022/12/08 02:18:51;;;;;;;8.63;3.65;;;;;;;-3.10;89.42;100282.25;5094671;28;20381;-72
2022/12/08 02:21:45;;;;;;;7.72;3.25;;;;;;;-3.29;89.42;100266.25;5112356;28;20429;-72
2022/12/08 02:24:37;;;;;;;8.05;2.92;;;;;;;-3.16;89.84;100279.25;5120995;27;20037;-72
2022/12/08 02:27:21;;;;;;;9.25;3.20;;;;;;;-3.10;89.64;100274.34;5089893;28;20036;-72
2022/12/08 02:30:05;;;;;;;6.90;2.90;;;;;;;-3.05;89.32;100278.38;5109006;28;20055;-72
2022/12/08 02:32:42;;;;;;;7.13;2.95;;;;;;;-2.96;89.29;100267.94;5093509;28;20023;-72
2022/12/08 02:35:35;;;;;;;5.32;3.08;;;;;;;-2.87;89.68;100267.19;5114371;28;20396;-72
2022/12/08 02:38:06;;;;;;;7.32;3.00;;;;;;;-2.80;89.21;100264.91;5120692;28;20028;-73
2022/12/08 02:41:13;;;;;;;6.28;3.13;;;;;;;-2.71;88.80;100258.88;5107289;28;20107;-72
2022/12/08 02:44:16;;;;;;;6.45;3.10;;;;;;;-2.63;89.47;100255.59;5124704;27;20036;-72
2022/12/08 02:47:10;;;;;;;4.88;2.65;;;;;;;-2.79;89.63;100220.97;5051485;28;20047;-72
2022/12/08 02:49:36;;;;;;;8.88;2.67;;;;;;;-2.53;89.15;100255.66;5109709;28;20047;-72
2022/12/08 02:52:10;;;;;;;5.20;2.53;;;;;;;-2.54;89.45;100243.47;5107115;27;20028;-72
2022/12/08 02:54:40;;;;;;;6.72;2.83;;;;;;;-2.59;89.14;100225.41;5118015;27;20028;-72
2022/12/08 02:57:12;;;;;;;5.22;2.80;;;;;;;-2.41;89.20;100242.31;5095082;28;20027;-72
2022/12/08 02:59:43;;;;;;;5.32;2.60;;;;;;;-2.40;89.69;100241.34;5117397;28;20024;-72
2022/12/08 03:02:33;;;;;;;5.80;2.83;;;;;;;-2.38;89.38;100242.06;5138767;28;20056;-72
2022/12/08 03:05:16;;;;;;;6.95;2.63;;;;;;;-2.38;89.64;100239.41;5112338;28;20487;-73
2022/12/08 03:08:03;;;;;;;7.38;2.63;;;;;;;-2.61;89.53;100211.53;5099643;28;20042;-72
2022/12/08 03:10:33;;;;;;;5.15;2.80;;;;;;;-2.41;89.46;100229.13;5090793;28;20028;-72
2022/12/08 03:13:08;;;;;;;5.00;3.00;;;;;;;-2.40;89.83;100222.88;5115447;27;20035;-73
2022/12/08 03:15:36;;;;;;;5.53;2.30;;;;;;;-2.43;89.99;100215.25;5115807;28;20034;-72
2022/12/08 03:18:04;;;;;;;5.93;2.88;;;;;;;-2.42;89.63;100221.34;5106741;27;20392;-73
2022/12/08 03:20:33;;;;;;;5.47;2.53;;;;;;;-2.40;90.18;100229.97;5119649;27;20161;-72
2022/12/08 03:23:00;;;;;;;5.10;2.60;;;;;;;-2.39;89.89;100221.09;5108474;28;20039;-72
2022/12/08 03:25:30;;;;;;;5.70;3.00;;;;;;;-2.39;89.90;100215.81;5108031;28;20031;-72
2022/12/08 03:27:57;;;;;;;6.28;2.65;;;;;;;-2.70;89.76;100168.38;5115804;28;20027;-72
2022/12/08 03:30:23;;;;;;;5.72;2.78;;;;;;;-2.41;90.06;100213.31;5086311;28;20047;-72
2022/12/08 03:32:58;;;;;;;6.03;2.58;;;;;;;-2.39;90.10;100208.75;5111724;28;20038;-72
2022/12/08 03:35:29;;;;;;;5.80;2.78;;;;;;;-2.61;90.20;100169.41;5111128;28;20027;-72
2022/12/08 03:38:12;;;;;;;5.97;2.63;;;;;;;-2.31;89.88;100202.00;5102659;28;20027;-72
2022/12/08 03:40:38;;;;;;;5.45;2.75;;;;;;;-2.32;89.57;100195.88;5089666;28;20158;-73
2022/12/08 03:43:04;;;;;;;6.32;2.83;;;;;;;-2.31;90.23;100194.09;5109629;28;20024;-72
2022/12/08 03:45:29;;;;;;;7.40;3.03;;;;;;;-2.52;89.97;100142.25;5094513;28;20647;-73
2022/12/08 03:47:55;;;;;;;5.35;3.42;;;;;;;-2.23;89.71;100181.09;5102419;28;20032;-73
2022/12/08 03:50:22;;;;;;;7.53;2.95;;;;;;;-2.15;89.83;100189.19;5115451;28;20478;-72
2022/12/08 03:52:48;;;;;;;4.53;3.15;;;;;;;-2.09;89.94;100185.16;5106702;28;20062;-72
2022/12/08 03:55:14;;;;;;;4.97;3.55;;;;;;;-2.09;89.65;100178.09;5091187;28;20038;-72
2022/12/08 03:57:40;;;;;;;7.63;3.33;;;;;;;-2.54;90.20;100131.03;5095786;28;20152;-72
2022/12/08 04:00:07;;;;;;;6.47;3.30;;;;;;;-2.08;90.92;100174.50;5084689;28;20059;-73
2022/12/08 04:02:32;;;;;;;6.57;3.55;;;;;;;-1.90;89.80;100175.53;5113528;28;20039;-72
2022/12/08 04:04:57;;;;;;;7.00;3.60;;;;;;;-1.78;89.72;100176.25;5106611;28;20035;-73
2022/12/08 04:07:23;;;;;;;5.78;3.60;;;;;;;-1.80;90.01;100174.72;5106534;28;20463;-72
2022/12/08 04:09:48;;;;;;;6.43;3.47;;;;;;;-1.72;90.53;100178.38;5114285;28;20061;-73
2022/12/08 04:12:16;;;;;;;6.82;3.53;;;;;;;-1.63;90.77;100174.06;5102268;28;20032;-75
2022/12/08 04:14:42;;;;;;;10.15;3.60;;;;;;;-1.55;90.54;100173.41;5112946;28;20028;-72
2022/12/08 04:17:10;;;;;;;7.00;3.67;;;;;;;-1.67;90.69;100143.66;5109520;28;20027;-73
2022/12/08 04:19:35;;;;;;;4.80;3.38;;;;;;;-1.39;90.98;100178.97;5105103;28;20093;-73
2022/12/08 04:22:01;;;;;;;7.32;3.53;;;;;;;-1.33;90.49;100178.41;5116224;28;20039;-73
2022/12/08 04:24:26;;;;;;;6.30;3.53;;;;;;;-1.22;90.45;100180.09;5103350;28;20114;-73
2022/12/08 04:26:52;;;;;;;6.82;3.60;;;;;;;-1.23;91.31;100173.94;5111253;28;20036;-73
2022/12/08 04:29:17;;;;;;;7.68;3.88;;;;;;;-1.16;90.96;100168.94;5111300;28;20031;-73
2022/12/08 04:31:43;;;;;;;6.63;4.00;;;;;;;-1.08;91.23;100177.03;5108339;28;20399;-72
2022/12/08 04:34:08;;;;;;;7.70;4.30;;;;;;;-1.25;91.29;100138.13;5117498;28;20176;-73
2022/12/08 04:36:34;;;;;;;8.95;3.97;;;;;;;-0.98;91.39;100159.38;5089770;28;20046;-73
2022/12/08 04:38:59;;;;;;;7.35;4.00;;;;;;;-0.96;91.09;100154.78;5098381;28;20036;-73
2022/12/08 04:41:25;;;;;;;9.73;4.10;;;;;;;-0.90;90.97;100147.25;5115703;28;20406;-73
2022/12/08 04:43:51;;;;;;;7.13;3.97;;;;;;;-0.83;91.39;100158.91;5108918;27;20028;-73
2022/12/08 04:46:16;;;;;;;8.90;3.90;;;;;;;-0.90;91.79;100158.66;5116651;28;20044;-73
2022/12/08 04:48:42;;;;;;;6.72;3.83;;;;;;;-1.09;91.61;100119.94;5106452;28;20038;-73
2022/12/08 04:51:15;;;;;;;8.80;4.32;;;;;;;-1.07;91.50;100122.41;5120744;28;20024;-73
2022/12/08 04:53:41;;;;;;;6.95;3.55;;;;;;;-1.15;91.71;100111.72;5125180;28;20061;-73
2022/12/08 04:56:11;;;;;;;6.53;3.70;;;;;;;-0.91;91.73;100142.97;5115190;28;20028;-73
2022/12/08 04:58:36;;;;;;;6.13;4.00;;;;;;;-0.88;91.67;100142.69;5126683;28;20028;-73
2022/12/08 05:01:02;;;;;;;8.30;3.90;;;;;;;-0.86;91.79;100146.00;5119752;28;20066;-73
2022/12/08 05:03:27;;;;;;;5.65;3.88;;;;;;;-0.99;91.87;100123.38;5118097;28;20050;-73
2022/12/08 05:05:53;;;;;;;9.57;4.07;;;;;;;-0.93;92.09;100140.44;5127654;28;20091;-73
2022/12/08 05:08:18;;;;;;;6.85;3.83;;;;;;;-0.86;91.90;100144.22;5114241;28;20050;-72
2022/12/08 05:10:44;;;;;;;8.00;4.05;;;;;;;-1.15;91.88;100099.38;5123211;28;20044;-71
2022/12/08 05:13:09;;;;;;;8.85;4.20;;;;;;;-1.03;91.75;100114.06;5120562;28;20035;-72
2022/12/08 05:15:35;;;;;;;6.47;3.67;;;;;;;-0.92;91.84;100143.94;5115826;28;20039;-72
2022/12/08 05:18:00;;;;;;;9.07;3.72;;;;;;;-1.01;92.19;100137.69;5110474;28;20133;-71
2022/12/08 05:20:26;;;;;;;7.38;3.55;;;;;;;-1.01;92.39;100133.25;5114864;28;20032;-72
2022/12/08 05:22:52;;;;;;;5.85;3.40;;;;;;;-0.98;92.14;100135.59;5123422;28;20031;-72
2022/12/08 05:25:18;;;;;;;7.32;3.03;;;;;;;-1.02;92.30;100134.22;5119041;28;20031;-70
2022/12/08 05:27:43;;;;;;;6.25;2.75;;;;;;;-1.03;92.31;100135.19;5114349;28;21022;-72
2022/12/08 05:30:09;;;;;;;5.38;3.00;;;;;;;-1.14;92.65;100116.03;5125948;28;20069;-73
2022/12/08 05:32:34;;;;;;;6.85;3.40;;;;;;;-1.09;92.76;100133.13;5113345;28;20031;-70
2022/12/08 05:35:00;;;;;;;7.15;3.60;;;;;;;-1.13;92.73;100131.72;5120570;28;20087;-71
2022/12/08 05:37:25;;;;;;;9.23;3.83;;;;;;;-1.15;92.31;100131.03;5120759;28;20054;-72
2022/12/08 05:39:51;;;;;;;11.57;5.35;;;;;;;-1.23;92.81;100130.88;5111458;28;20051;-71
2022/12/08 05:42:16;;;;;;;11.68;5.03;;;;;;;-1.29;92.80;100129.66;5126986;28;20043;-72
2022/12/08 05:44:42;;;;;;;7.55;3.92;;;;;;;-1.53;92.51;100093.13;5118393;28;20034;-72
2022/12/08 05:47:07;;;;;;;7.40;3.50;;;;;;;-1.34;92.83;100116.03;5117817;28;20032;-72
2022/12/08 05:49:32;;;;;;;6.10;2.95;;;;;;;-1.34;92.86;100110.75;5103087;28;20562;-73
2022/12/08 05:51:58;;;;;;;8.25;3.45;;;;;;;-1.34;93.13;100117.84;5102889;28;20086;-71
2022/12/08 05:54:23;;;;;;;9.52;3.40;;;;;;;-1.30;92.83;100119.22;5121972;28;20020;-73
2022/12/08 05:56:49;;;;;;;9.48;4.03;;;;;;;-1.30;92.51;100114.78;5106022;28;20038;-71
2022/12/08 05:59:15;;;;;;;11.05;4.07;;;;;;;-1.30;92.66;100113.94;5106028;28;20624;-73
2022/12/08 06:01:41;;;;;;;10.75;4.25;;;;;;;-1.37;92.70;100103.13;5112138;28;20040;-72
2022/12/08 06:04:08;;;;;;;17.27;6.65;;;;;;;-1.32;92.84;100108.00;5101332;28;20040;-73
2022/12/08 06:06:35;;;;;;;17.77;6.35;;;;;;;-1.28;92.38;100109.38;5113648;28;20036;-73
2022/12/08 06:09:02;;;;;;;19.83;6.28;;;;;;;-1.24;92.91;100110.75;5106054;28;20108;-73
2022/12/08 06:11:30;;;;;;;19.80;6.88;;;;;;;-1.16;92.95;100110.03;5088291;28;20036;-73
2022/12/08 06:13:57;;;;;;;17.88;5.13;;;;;;;-1.13;92.81;100104.50;5096211;28;20074;-74
2022/12/08 06:16:23;;;;;;;21.38;6.32;;;;;;;-1.03;92.79;100100.84;5100047;28;20087;-73
2022/12/08 06:18:49;;;;;;;23.75;6.38;;;;;;;-0.99;92.97;100096.97;5110400;28;20032;-71
2022/12/08 06:21:15;;;;;;;25.08;7.05;;;;;;;-0.89;92.75;100096.09;5107027;28;20410;-72
2022/12/08 06:23:42;;;;;;;28.33;7.38;;;;;;;-0.80;92.60;100090.78;5102228;28;20402;-73
2022/12/08 06:26:13;;;;;;;27.67;7.78;;;;;;;-0.72;92.73;100093.56;5096379;28;20039;-73
2022/12/08 06:28:40;;;;;;;23.75;5.95;;;;;;;-0.64;92.75;100094.66;5103383;28;20028;-73
2022/12/08 06:31:12;;;;;;;18.90;5.63;;;;;;;-0.53;93.11;100095.31;5107979;28;20040;-73
2022/12/08 06:33:38;;;;;;;17.50;4.60;;;;;;;-0.48;92.58;100103.63;5109647;28;20084;-73
2022/12/08 06:36:05;;;;;;;13.20;3.10;;;;;;;-0.39;92.45;100094.00;5082944;28;20039;-72
2022/12/08 06:38:31;;;;;;;11.52;3.38;;;;;;;-0.39;92.92;100087.88;5113013;28;20088;-73
2022/12/08 06:40:57;;;;;;;15.23;3.63;;;;;;;-0.22;92.95;100102.97;5103727;28;20482;-72
2022/12/08 06:43:23;;;;;;;14.75;4.60;;;;;;;-0.13;92.64;100096.81;5087240;28;20060;-72
2022/12/08 06:45:49;;;;;;;13.75;4.05;;;;;;;-0.02;92.94;100093.13;5111254;28;20035;-72
2022/12/08 06:48:14;;;;;;;16.52;3.65;;;;;;;0.07;92.84;100094.06;5098838;28;20486;-72
2022/12/08 06:50:40;;;;;;;10.57;2.50;;;;;;;0.19;92.71;100096.31;5093203;28;20380;-72
2022/12/08 06:53:05;;;;;;;15.65;3.88;;;;;;;0.23;93.08;100089.75;5104792;28;20148;-72
2022/12/08 06:55:31;;;;;;;4.75;1.60;;;;;;;0.26;93.28;100072.72;5104107;28;20040;-72
2022/12/08 06:57:57;;;;;;;9.70;2.05;;;;;;;0.44;93.18;100100.03;5111888;28;20032;-72
2022/12/08 07:00:22;;;;;;;6.40;2.17;;;;;;;0.50;93.26;100082.72;5103513;28;20031;-72
2022/12/08 07:02:48;;;;;;;9.50;2.03;;;;;;;0.64;93.43;100098.06;5114115;28;20536;-73
2022/12/08 07:05:13;;;;;;;7.78;2.42;;;;;;;0.79;93.45;100093.06;5109124;28;20035;-72
2022/12/08 07:07:39;;;;;;;6.75;1.98;;;;;;;0.78;93.31;100077.31;5088647;28;20020;-72
2022/12/08 07:10:05;;;;;;;5.68;1.83;;;;;;;0.94;93.47;100085.41;5115812;28;20038;-72
2022/12/08 07:12:31;;;;;;;5.35;1.85;;;;;;;1.08;93.05;100081.34;5102336;28;20118;-72
2022/12/08 07:14:56;;;;;;;8.00;2.33;;;;;;;1.12;93.61;100085.34;5094732;28;20047;-72
2022/12/08 07:17:22;;;;;;;6.00;1.48;;;;;;;1.24;93.41;100086.75;5111455;28;20034;-72
2022/12/08 07:19:47;;;;;;;5.78;1.33;;;;;;;1.30;93.54;100086.13;5104134;28;20115;-72
2022/12/08 07:22:13;;;;;;;4.88;1.52;;;;;;;1.37;93.41;100084.50;5098851;28;20059;-72
2022/12/08 07:24:38;;;;;;;3.05;1.15;;;;;;;1.47;93.53;100083.56;5104299;28;20034;-72
2022/12/08 07:27:04;;;;;;;4.25;1.00;;;;;;;1.41;93.52;100058.53;5111728;28;20483;-72
2022/12/08 07:29:29;;;;;;;4.38;0.98;;;;;;;1.50;93.93;100059.41;5111162;28;20035;-72
2022/12/08 07:31:55;;;;;;;2.50;0.65;;;;;;;1.63;93.83;100078.34;5102380;28;20032;-72
2022/12/08 07:34:20;;;;;;;8.48;2.30;;;;;;;1.69;93.73;100067.13;5115349;28;20031;-73
2022/12/08 07:36:45;;;;;;;6.72;0.88;;;;;;;1.78;93.63;100076.72;5104517;28;20028;-72
2022/12/08 07:39:11;;;;;;;7.57;1.20;;;;;;;1.79;93.46;100070.47;5109225;28;20055;-73
2022/12/08 07:41:39;;;;;;;7.03;1.08;;;;;;;1.83;94.25;100069.16;5113260;28;20028;-72
2022/12/08 07:44:04;;;;;;;3.83;1.00;;;;;;;1.87;94.01;100081.09;5102047;28;20080;-72
2022/12/08 07:46:30;;;;;;;3.80;0.85;;;;;;;1.95;93.44;100084.75;5114209;28;20398;-72
2022/12/08 07:48:56;;;;;;;7.72;1.33;;;;;;;1.80;93.40;100047.41;5106194;28;20038;-72
2022/12/08 07:51:23;;;;;;;3.83;1.00;;;;;;;2.02;93.94;100075.16;5108607;28;20036;-72
2022/12/08 07:53:52;;;;;;;4.57;1.20;;;;;;;2.14;93.48;100075.69;5096374;28;20451;-72
2022/12/08 07:56:18;;;;;;;6.05;1.00;;;;;;;2.22;93.52;100073.91;5063255;28;20044;-72
2022/12/08 07:58:45;;;;;;;3.72;0.95;;;;;;;2.25;93.46;100062.09;5074101;28;20089;-73
2022/12/08 08:01:29;;;;;;;2.25;0.82;;;;;;;2.15;93.53;100040.19;5069495;28;20052;-72
2022/12/08 08:04:00;;;;;;;5.53;0.82;;;;;;;2.39;93.85;100076.59;5081223;28;20082;-72
2022/12/08 08:06:32;;;;;;;6.20;1.00;;;;;;;2.45;93.52;100068.78;5093368;28;20044;-73
2022/12/08 08:08:58;;;;;;;4.35;0.90;;;;;;;2.48;93.81;100073.75;5050480;28;20039;-72
2022/12/08 08:11:23;;;;;;;4.53;0.90;;;;;;;2.59;93.52;100075.28;5085287;28;20044;-73
2022/12/08 08:13:50;;;;;;;8.23;0.95;;;;;;;2.64;93.56;100080.91;5090898;28;20036;-72
2022/12/08 08:16:16;;;;;;;6.47;1.00;;;;;;;2.68;92.95;100068.97;5079750;28;20520;-72
2022/12/08 08:18:42;;;;;;;7.43;0.90;;;;;;;2.70;93.48;100066.13;5090726;28;20025;-72
2022/12/08 08:21:08;;;;;;;5.28;0.90;;;;;;;2.72;93.70;100064.97;5052008;28;20046;-72
2022/12/08 08:23:33;;;;;;;3.75;0.90;;;;;;;2.73;93.16;100056.00;5050346;28;20100;-72
2022/12/08 08:26:01;;;;;;;2.92;0.68;;;;;;;2.93;93.02;100063.63;5093149;28;20042;-72
2022/12/08 08:28:28;;;;;;;3.95;0.93;;;;;;;2.79;92.89;100044.72;5116527;28;20031;-72
2022/12/08 08:30:53;;;;;;;7.32;0.90;;;;;;;2.95;92.67;100073.09;5112748;28;20093;-72
2022/12/08 08:33:18;;;;;;;4.82;0.70;;;;;;;2.99;92.51;100070.94;5105412;28;20514;-72
2022/12/08 08:35:46;;;;;;;4.25;0.70;;;;;;;3.04;92.06;100064.09;5101894;28;20054;-72
2022/12/08 08:38:11;;;;;;;3.72;0.73;;;;;;;3.00;92.24;100051.31;5115594;28;20019;-73
2022/12/08 08:40:37;;;;;;;3.30;0.88;;;;;;;3.09;92.70;100065.44;5101744;28;20039;-73
2022/12/08 08:43:05;;;;;;;8.18;0.85;;;;;;;3.12;92.69;100070.44;5109070;28;20028;-73
2022/12/08 08:45:32;;;;;;;2.97;0.80;;;;;;;2.93;92.23;100035.22;5092494;28;20040;-72
2022/12/08 08:47:57;;;;;;;6.32;1.17;;;;;;;3.02;92.07;100030.75;5101120;28;20028;-72
2022/12/08 08:50:28;;;;;;;6.18;1.10;;;;;;;3.24;92.15;100058.41;5113211;28;20085;-72
2022/12/08 08:52:53;;;;;;;8.52;0.90;;;;;;;3.27;91.35;100045.59;5104987;28;20047;-72
2022/12/08 08:55:19;;;;;;;3.70;0.75;;;;;;;3.19;92.21;100050.97;5106051;28;20398;-72
2022/12/08 08:57:44;;;;;;;4.43;0.95;;;;;;;3.29;91.48;100051.59;5093839;28;20526;-73
2022/12/08 09:00:10;;;;;;;3.42;0.80;;;;;;;3.30;91.86;100055.09;5083055;28;20066;-72
2022/12/08 09:02:37;;;;;;;5.45;0.95;;;;;;;3.35;91.22;100057.25;5113242;28;20193;-72
2022/12/08 09:05:03;;;;;;;10.05;2.83;;;;;;;3.40;90.96;100062.88;5105165;28;20406;-72
2022/12/08 09:07:29;;;;;;;13.27;1.40;;;;;;;3.33;91.47;100059.25;5104460;28;20181;-72
2022/12/08 09:09:55;;;;;;;4.88;1.10;;;;;;;3.38;91.58;100049.75;5112173;28;20608;-72
2022/12/08 09:12:21;;;;;;;6.15;0.80;;;;;;;3.44;90.56;100053.53;5101010;28;20464;-72
2022/12/08 09:14:46;;;;;;;7.60;1.13;;;;;;;3.35;91.08;100038.63;5111747;28;20024;-72
2022/12/08 09:17:12;;;;;;;4.90;0.88;;;;;;;3.39;90.69;100047.91;5107056;28;20023;-72
2022/12/08 09:19:37;;;;;;;5.45;0.80;;;;;;;3.30;90.43;100029.31;5086178;28;20036;-72
2022/12/08 09:22:03;;;;;;;5.32;1.48;;;;;;;3.44;89.91;100049.03;5112349;28;20088;-72
2022/12/08 09:24:29;;;;;;;5.18;0.80;;;;;;;3.49;90.39;100052.03;5084343;28;20386;-72
2022/12/08 09:26:54;;;;;;;4.25;0.90;;;;;;;3.42;90.65;100055.56;5108901;28;20030;-72
2022/12/08 09:29:20;;;;;;;4.70;1.02;;;;;;;3.52;89.90;100050.88;5107066;28;20032;-72
2022/12/08 09:31:45;;;;;;;3.75;0.88;;;;;;;3.57;89.63;100060.97;5101811;28;20040;-72
2022/12/08 09:34:11;;;;;;;7.93;1.33;;;;;;;3.59;89.35;100051.84;5112765;28;20049;-72
2022/12/08 09:36:37;;;;;;;4.68;1.02;;;;;;;3.63;89.60;100039.84;5100060;28;20019;-72
2022/12/08 09:39:02;;;;;;;5.63;1.23;;;;;;;3.59;89.28;100019.09;5107524;28;20024;-72
2022/12/08 09:41:48;;;;;;;8.30;1.48;;;;;;;3.75;88.72;100030.47;5090840;28;20051;-72
2022/12/08 09:44:43;;;;;;;4.35;0.80;;;;;;;3.85;88.81;100046.25;5099232;28;20031;-72
2022/12/08 09:47:25;;;;;;;6.72;1.00;;;;;;;3.80;88.94;100029.13;5108424;28;20035;-72
2022/12/08 09:49:58;;;;;;;4.72;0.90;;;;;;;4.05;88.01;100035.16;5112179;28;20031;-72
2022/12/08 09:52:39;;;;;;;7.13;1.00;;;;;;;4.00;88.07;100022.34;5100404;28;20437;-72
2022/12/08 09:55:14;;;;;;;6.78;0.88;;;;;;;4.19;87.73;100032.56;5109074;28;20019;-72
2022/12/08 09:57:39;;;;;;;4.50;0.75;;;;;;;4.05;87.59;100004.03;5110169;28;20049;-72
2022/12/08 10:00:06;;;;;;;6.80;0.80;;;;;;;4.26;87.15;100015.88;5099213;28;20506;-72
2022/12/08 10:02:33;;;;;;;6.72;0.93;;;;;;;4.16;87.82;100021.44;5094687;28;20071;-72
2022/12/08 10:04:58;;;;;;;8.73;0.80;;;;;;;4.22;88.08;100021.53;5086654;28;20038;-72
2022/12/08 10:07:30;;;;;;;5.70;0.65;;;;;;;4.26;88.27;100021.19;5104788;28;20182;-72
2022/12/08 10:10:04;;;;;;;8.15;0.90;;;;;;;4.27;87.90;100018.34;5112519;28;20032;-72
2022/12/08 10:13:00;;;;;;;5.45;0.75;;;;;;;4.26;87.24;100015.88;5082409;28;20028;-72
2022/12/08 10:16:03;;;;;;;11.55;2.30;;;;;;;4.23;87.32;100017.88;5116763;28;20020;-72
2022/12/08 10:18:31;;;;;;;6.80;0.88;;;;;;;4.29;87.45;100007.53;5127129;28;20051;-71
2022/12/08 10:21:12;;;;;;;5.32;0.70;;;;;;;4.10;87.07;99988.34;5104469;28;20114;-71
2022/12/08 10:23:41;;;;;;;6.00;0.60;;;;;;;4.22;86.78;100002.09;5099999;28;20062;-71
2022/12/08 10:26:13;;;;;;;4.28;0.80;;;;;;;4.15;86.81;99999.31;5110407;28;20503;-72
2022/12/08 10:28:38;;;;;;;4.03;0.70;;;;;;;4.11;86.30;100003.34;5100973;28;20055;-72
2022/12/08 10:31:04;;;;;;;4.43;0.70;;;;;;;4.31;85.97;100000.19;5108648;28;20097;-72
2022/12/08 10:33:31;;;;;;;4.95;0.70;;;;;;;4.36;85.25;100005.81;5110348;28;20463;-72
2022/12/08 10:36:01;;;;;;;5.10;0.65;;;;;;;4.28;85.32;99997.88;5105734;28;20060;-72
2022/12/08 10:38:32;;;;;;;5.22;0.70;;;;;;;4.26;85.40;99989.25;5117256;28;20028;-72
2022/12/08 10:41:12;;;;;;;4.80;0.55;;;;;;;4.22;85.16;99989.59;5109567;28;20027;-72
2022/12/08 10:43:53;;;;;;;10.75;0.93;;;;;;;4.28;85.49;99987.25;5108064;28;20036;-72
2022/12/08 10:46:20;;;;;;;2.75;0.57;;;;;;;4.20;84.78;99980.94;5118411;28;20036;-72
2022/12/08 10:48:47;;;;;;;7.03;0.80;;;;;;;4.16;84.77;99984.97;5107825;28;20059;-72
2022/12/08 10:51:28;;;;;;;3.75;0.65;;;;;;;4.13;84.63;99985.31;5112010;28;20085;-73
2022/12/08 10:53:54;;;;;;;5.70;0.95;;;;;;;4.10;84.26;99980.34;5115313;28;20055;-72
2022/12/08 10:56:27;;;;;;;1.75;0.50;;;;;;;4.24;83.83;99981.44;5103216;28;20028;-72
2022/12/08 10:59:15;;;;;;;6.57;0.85;;;;;;;4.20;83.94;99983.59;5113776;28;20031;-72
2022/12/08 11:01:45;;;;;;;3.50;0.50;;;;;;;3.98;83.76;99963.16;5114865;28;20074;-72
2022/12/08 11:04:19;;;;;;;3.10;0.80;;;;;;;4.16;83.36;99968.19;5104091;28;20066;-72
2022/12/08 11:06:46;;;;;;;4.95;0.60;;;;;;;4.12;83.07;99954.41;5115079;28;20032;-72
2022/12/08 11:09:14;;;;;;;2.83;0.60;;;;;;;4.18;82.86;99967.00;5109167;28;20031;-72
2022/12/08 11:12:05;;;;;;;4.68;0.70;;;;;;;4.26;82.04;99970.59;5108289;28;20087;-72
2022/12/08 11:14:46;;;;;;;3.17;0.50;;;;;;;4.37;82.41;99968.34;5080111;28;20483;-72
2022/12/08 11:17:14;;;;;;;4.63;0.75;;;;;;;4.22;82.30;99956.81;5099651;28;20036;-72
2022/12/08 11:19:53;;;;;;;4.90;0.77;;;;;;;4.20;81.96;99956.97;5107014;28;20023;-73
2022/12/08 11:22:39;;;;;;;3.80;0.75;;;;;;;4.26;81.48;99962.59;5117902;28;20083;-72
2022/12/08 11:25:07;;;;;;;2.30;0.43;;;;;;;4.41;81.97;99966.16;5109562;28;20035;-73
2022/12/08 11:27:55;;;;;;;6.22;0.70;;;;;;;4.33;80.93;99968.88;5108761;28;20032;-73
2022/12/08 11:30:37;;;;;;;5.22;0.50;;;;;;;4.38;81.66;99951.34;5116417;28;20032;-73
2022/12/08 11:33:14;;;;;;;4.95;0.63;;;;;;;4.38;80.87;99958.53;5106889;28;20023;-72
2022/12/08 11:36:04;;;;;;;3.85;0.70;;;;;;;4.43;80.93;99958.78;5108061;28;20028;-72
2022/12/08 11:38:31;;;;;;;3.15;0.60;;;;;;;4.39;81.64;99957.50;5117335;28;20077;-73
2022/12/08 11:41:08;;;;;;;7.78;0.90;;;;;;;4.45;81.78;99956.78;5106612;28;20046;-73
2022/12/08 11:43:34;;;;;;;4.78;0.82;;;;;;;4.52;81.76;99951.56;5108036;27;20398;-73
2022/12/08 11:46:07;;;;;;;4.63;0.95;;;;;;;4.32;82.04;99932.59;5114783;28;20031;-73
2022/12/08 11:48:44;;;;;;;2.63;0.70;;;;;;;4.57;81.57;99960.69;5086142;28;20024;-73